Tiempo atmosférico en la estación meteorológica de Huelva, Ronda Este, Huelva (19 m.)



Fecha
DESCASC
Temp. máxima en grados centígrados (hora)
DESCASC
Temp. mínima en grados centígrados (hora)
DESCASC
Temp. media en grados centígrados
DESCASC
Racha de viento máxima en m/sg (hora)
DESCASC
Velocidad máxima media en intervalos de 10 minutos(hora)
DESCASC
Precipitaciones diarias en mm
DESCASC
Precipitaciones de 00:00 a 06:00 en mm
DESCASC
Precipitaciones de 06:00 a 12:00 en mm
DESCASC
Precipitaciones de 12:00 a 18:00 en mm
DESCASC
Precipitaciones de 18:00 a 24:00 en mm
DESCASC
19-09-2019 28.1 (15:00) 15 (08:50) 21.6 9.17 (19:30) 5.83 (19:30) 0 0 0 0 0
18-09-2019 28.5 (14:20) 16.5 (08:40) 22.5 9.44 (16:00) 6.11 (15:50) 0 0 0 0 0
17-09-2019 28.7 (16:20) 17.3 (00:00) 23 8.61 (14:30) 6.39 (18:20) 0 0 0 0 0
16-09-2019 28.9 (15:00) 18.4 (00:00) 23.6 8.06 (16:00) 6.11 (16:00) 0 0 0 0 0
15-09-2019 29.4 (14:20) 18.1 (00:00) 23.8 9.72 (19:00) 6.67 (16:50) 0 0 0 0 0
14-09-2019 28.7 (18:20) 18.2 (00:00) 23.5 8.61 (12:50) 5.28 (13:30) 1.2 0 0 1.2 0
13-09-2019 30.5 (17:10) 19.7 (00:00) 25.1 11.94 (12:20) 7.5 (12:40) 0 0 0 0 0
12-09-2019 30.3 (17:50) 17.1 (00:00) 23.7 14.17 (13:00) 7.78 (14:20) 0 0 0 0 0
11-09-2019 31.6 (16:30) 15.9 (00:00) 23.8 9.44 (18:30) 6.94 (18:30) 0 0 0 0 0
10-09-2019 28.9 (18:00) 16.4 (06:00) 22.6 16.11 (14:30) 6.94 (12:00) 0 0 0 0 0
09-09-2019 30.9 (14:50) 19.3 (07:30) 25.1 11.39 (16:40) 8.33 (16:50) 0 0 0 0 0
08-09-2019 32.5 (14:30) 20.5 (00:00) 26.5 11.67 (16:30) 8.06 (14:40) 0 0 0 0 0
07-09-2019 33.5 (14:30) 20.4 (00:00) 26.9 10.56 (16:10) 7.22 (16:20) 0 0 0 0 0
06-09-2019 33.2 (15:10) 19.6 (00:00) 26.4 7.78 (17:30) 5.28 (17:30) 0 0 0 0 0
05-09-2019 30.7 (15:50) 20.3 (00:00) 25.5 8.33 (17:10) 5.83 (16:40) 0 0 0 0 0
04-09-2019 34.1 (14:20) 21.3 (00:00) 27.7 8.33 (17:30) 5.83 (17:30) 0 0 0 0 0
03-09-2019 34.6 (16:40) 19.3 (00:00) 26.9 8.33 (18:00) 5.56 (18:30) 0 0 0 0 0
02-09-2019 33.3 (15:50) 19.3 (00:00) 26.3 8.89 (19:10) 6.39 (19:10) 0 0 0 0 0
01-09-2019 30.5 (17:30) 20.4 (00:00) 25.4 8.33 (15:00) 5.83 (16:10) 0 0 0 0 0
31-08-2019 34.4 (14:20) 20.8 (00:00) 27.6 8.33 (14:50) 5.83 (15:30) 0 0 0 0 0
30-08-2019 35.3 (15:50) 20.2 (00:00) 27.8 8.33 (16:30) 5.83 (19:40) 0 0 0 0 0
29-08-2019 35.5 (16:40) 21.8 (00:00) 28.6 8.89 (17:30) 5.83 (17:20) 0 0 0 0 0
28-08-2019 33.9 (14:10) 19.2 (00:00) 26.6 8.61 (19:00) 6.39 (17:10) 0 0 0 0 0
27-08-2019 28.6 (15:50) 17.7 (00:00) 23.2 8.33 (13:40) 5.83 (13:40) 0 0 0 0 0
26-08-2019 28.6 (16:40) 19.7 (00:00) 24.2 9.44 (13:00) 6.67 (11:20) 0 0 0 0 0
25-08-2019 32.7 (16:30) 19.7 (00:00) 26.2 8.61 (17:20) 5.83 (17:20) 0 0 0 0 0
24-08-2019 34.9 (14:40) 19.9 (00:00) 27.4 9.44 (15:30) 6.39 (15:40) 0 0 0 0 0
23-08-2019 35.6 (14:30) 20.7 (00:00) 28.1 9.17 (18:00) 6.11 (17:40) 0 0 0 0 0

Gráficas

Temp. máximas Temp. mínimas Temp. medias Precipitaciones Rachas de viento máximas Velocidades máximas media en intervalos de 10 minutos

Datos horarios

Fecha y hora oficial Temperatura (ºC) Velocidad del viento (km/h) Dirección del viento Racha (km/h) Dirección de racha Precipitación (mm) Presión (hPa) Tendencia (hPa) Humedad (%)
2019-09-21 23:00:00 21.7 9 Sudoeste 17 Sudoeste 0 1012.1 1.1 93
2019-09-21 22:00:00 21.6 10 Sur 21 Sudoeste 0 1011.5 0.6 91
2019-09-21 21:00:00 21.8 14 Sudoeste 32 Sur 0 1011.4 0.2 89
2019-09-21 20:00:00 22.3 20 Sur 32 Sur 0 1011 -0.3 86
2019-09-21 19:00:00 22.7 20 Sur 34 Sur 0 1010.9 -0.6 84
2019-09-21 18:00:00 22.8 20 Sur 31 Sur 0 1011.2 -0.6 84
2019-09-21 17:00:00 23 20 Sur 30 Sur 0 1011.3 -0.4 80
2019-09-21 16:00:00 23 20 Sudoeste 31 Sur 0 1011.5 -0.8 78
2019-09-21 15:00:00 22.8 21 Sur 34 Sur 0 1011.8 -0.7 81
2019-09-21 14:00:00 23.2 20 Sur 30 Sur 0 1011.7 -0.5 81
2019-09-21 13:00:00 22.9 20 Sur 29 Sur 0 1012.3 0.5 80
2019-09-21 12:00:00 22.9 18 Sur 26 Sur 0 1012.5 1.3 79
2019-09-21 11:00:00 21.2 10 Sudeste 17 Sudeste 0 1012.2 1.3 83
2019-09-21 10:00:00 19.8 4 Sudeste 9 Sudeste 0 1011.8 1 87
2019-09-21 09:00:00 18.4 5 Nordeste 8 Este 0 1011.2 0.2 87
2019-09-21 08:00:00 18 6 Nordeste 10 Nordeste 0 1010.9 -0.1 87
2019-09-21 07:00:00 17.4 6 Nordeste 13 Nordeste 0 1010.8 -0.8 88
2019-09-21 06:00:00 17.2 7 Nordeste 11 Nordeste 0 1011 -0.8 88
2019-09-21 05:00:00 16.9 6 Nordeste 10 Nordeste 0 1011 -0.9 88
2019-09-21 04:00:00 17.5 4 Nordeste 6 Nordeste 0 1011.6 -0.4 90
2019-09-21 03:00:00 18.1 2 Este 5 Este 0 1011.8 -0.4 92
2019-09-21 02:00:00 18 3 Nordeste 4 Nordeste 0 1011.9 -0.3 90
2019-09-21 01:00:00 18.1 3 Nordeste 6 Nordeste 0 1012 0.3 88
2019-09-21 00:00:00 19.3 3 Este 9 Sudoeste 0 1012.2 0.7 85
2019-09-20 23:00:00 19.8 7 Sudoeste 10 Sudoeste 0 1012.2 0.9 84
2019-09-20 22:00:00 20.3 5 Sudoeste 19 Sudoeste 0 1011.7 0.4 76
2019-09-20 21:00:00 20.9 14 Oeste 22 Sudoeste 0 1011.5 0.9 80
2019-09-20 20:00:00 22.2 13 Sudoeste 26 Oeste 0 1011.3 -0.2 72
2019-09-20 19:00:00 22.8 20 Sudoeste 32 Sudoeste 0 1011.3 -0.6 73
2019-09-20 18:00:00 24.9 12 Sur 18 Sudeste 0 1010.6 -1.7 56
2019-09-20 17:00:00 26 8 Sur 16 Sur 0 1011.5 -0.9 52
2019-09-20 16:00:00 24.8 10 Sur 22 Sur 0 1011.9 -0.9 57
2019-09-20 15:00:00 24.9 12 Sur 21 Oeste 0 1012.3 -0.8 63
2019-09-20 14:00:00 24.4 10 Sudoeste 21 Sur 0 1012.4 -0.8 66
2019-09-20 13:00:00 25 10 Sur 18 Sur 0 1012.8 0.2 64
2019-09-20 12:00:00 21.8 4 Sudeste 10 Sudeste 0 1013.1 0.9 74
2019-09-20 11:00:00 19.8 2 Noroeste 8 Este 0 1013.2 1.3 77
2019-09-20 10:00:00 18.2 5 Nordeste 10 Este 0 1012.6 0.9 78
2019-09-20 09:00:00 17.3 4 Nordeste 9 Nordeste 0 1012.2 0.3 79
2019-09-20 08:00:00 17.4 6 Norte 14 Noroeste 0 1011.9 -0.1 78
2019-09-20 07:00:00 18 6 Noroeste 12 Noroeste 0 1011.7 -0.6 78
2019-09-20 06:00:00 18.1 5 Noroeste 8 Oeste 0 1011.9 -0.7 77
2019-09-20 05:00:00 18.8 5 Norte 8 Oeste 0 1012 -0.9 77
2019-09-20 04:00:00 19.1 3 Noroeste 14 Noroeste 0 1012.3 -0.7 76
2019-09-20 03:00:00 19.5 7 Noroeste 13 Noroeste 0 1012.6 -0.6 73
2019-09-20 02:00:00 20.6 6 Noroeste 12 Oeste 0 1012.9 0 70
2019-09-20 01:00:00 21.1 5 Norte 8 Norte 0 1013 0.4 70
2019-09-20 00:00:00 20.8 2 Oeste 5 Este 0 1013.2 1.1 77
2019-09-19 23:00:00 22.1 3 Noroeste 14 Oeste 0 1012.9 0.8 72
2019-09-19 22:00:00 22.2 6 Oeste 15 Oeste 0 1012.6 0.5 68
2019-09-19 21:00:00 22.3 10 Sudoeste 26 Sudoeste 0 1012.1 0 68
2019-09-19 20:00:00 23 18 Sudoeste 33 Sudoeste 0 1012.1 -0.1 66
2019-09-19 19:00:00 25.5 21 Sudoeste 28 Sudoeste 0 1012.1 -0.7 52
2019-09-19 18:00:00 26.6 18 Sudoeste 26 Sudoeste 0 1012.1 -1.4 54
2019-09-19 17:00:00 27 17 Sudoeste 26 Sudoeste 0 1012.2 -1.8 53
2019-09-19 16:00:00 27.1 17 Sudoeste 28 Sudoeste 0 1012.8 -1.9 55
2019-09-19 15:00:00 27.9 12 Sudoeste 29 Sur 0 1013.5 -1.7 54
2019-09-19 14:00:00 26 5 Norte 13 Oeste 0 1014 -1 56
2019-09-19 13:00:00 23.6 4 Nordeste 13 Este 0 1014.7 0.1 70
2019-09-19 12:00:00 20.8 6 Este 15 Este 0 1015.2 1.1 83
2019-09-19 11:00:00 18.7 5 Nordeste 10 Nordeste 0 1015 1.1 93
2019-09-19 10:00:00 16.9 7 Norte 12 Norte 0 1014.6 0.9 96
2019-09-19 09:00:00 15.2 4 Nordeste 10 Norte 0 1014.1 0.6 89
2019-09-19 08:00:00 16.4 6 Norte 13 Nordeste 0 1013.9 0.4 82
2019-09-19 07:00:00 16.7 8 Norte 12 Norte 0 1013.7 0.1 82
2019-09-19 06:00:00 16.6 3 Norte 10 Nordeste 0 1013.5 -0.7 82
2019-09-19 05:00:00 17.9 4 Nordeste 14 Noroeste 0 1013.5 -0.6 78
2019-09-19 04:00:00 18.5 9 Noroeste 21 Oeste 0 1013.6 -0.7 75
2019-09-19 03:00:00 18.9 10 Noroeste 20 Noroeste 0 1014.2 0.1 71
2019-09-19 02:00:00 19.8 9 Noroeste 20 Noroeste 0 1014.1 0.2 67
2019-09-19 01:00:00 20.3 7 Noroeste 17 Noroeste 0 1014.3 0.5 75
2019-09-19 00:00:00 20.5 10 Noroeste 14 Noroeste 0 1014.1 0.7 83
2019-09-18 23:00:00 21.4 9 Sudoeste 18 Sudoeste 0 1013.9 0.7 81
2019-09-18 22:00:00 21.9 13 Sudoeste 25 Sudoeste 0 1013.8 0.8 79
2019-09-18 21:00:00 22.2 17 Sudoeste 26 Oeste 0 1013.4 0.3 77
2019-09-18 20:00:00 23.3 15 Sudoeste 27 Sudoeste 0 1013.2 -0.2 71
2019-09-18 19:00:00 24.8 20 Sudoeste 27 Sudoeste 0 1013 -0.7 59
2019-09-18 18:00:00 25.1 20 Sudoeste 28 Sudoeste 0 1013.1 -0.8 59
2019-09-18 17:00:00 26.4 19 Sudoeste 32 Sudoeste 0 1013.4 -0.9 54
2019-09-18 16:00:00 26.5 22 Sudoeste 34 Oeste 0 1013.7 -1 52
2019-09-18 15:00:00 28.2 12 Sudoeste 24 Sur 0 1013.9 -0.7 49
2019-09-18 14:00:00 27.3 5 Noroeste 13 Oeste 0 1014.3 -0.3 47
2019-09-18 13:00:00 25.4 6 Noroeste 13 Oeste 0 1014.7 0.5 55
2019-09-18 12:00:00 23.2 5 Norte 14 Norte 0 1014.6 0.8 67
2019-09-18 11:00:00 21 6 Norte 15 Nordeste 0 1014.6 1.4 79
2019-09-18 10:00:00 18.7 5 Norte 11 Norte 0 1014.2 1.5 78
2019-09-18 09:00:00 16.9 3 Noroeste 10 Noroeste 0 1013.8 1.5 81
2019-09-18 08:00:00 16.8 6 Noroeste 11 Norte 0 1013.2 0.8 82
2019-09-18 07:00:00 17.6 9 Norte 15 Nordeste 0 1012.7 0.2 79
2019-09-18 06:00:00 18.2 6 Norte 14 Norte 0 1012.3 -0.5 78
2019-09-18 05:00:00 17.9 8 Noroeste 13 Noroeste 0 1012.4 -0.5 80
2019-09-18 04:00:00 18.4 5 Oeste 8 Oeste 0 1012.5 -0.5 77
2019-09-18 03:00:00 19.2 4 Noroeste 6 Noroeste 0 1012.8 -0.1 77
2019-09-18 02:00:00 20.1 4 Noroeste 12 Noroeste 0 1012.9 0.2 72
2019-09-18 01:00:00 20.3 5 Noroeste 10 Noroeste 0 1013 1 83
2019-09-18 00:00:00 20.4 0 Calma 8 Sur 0 1012.9 1.5 83
2019-09-17 23:00:00 21.3 5 Sudeste 14 Sudoeste 0 1012.7 1.3 77
2019-09-17 22:00:00 22.2 11 Sudoeste 18 Oeste 0 1012 0.4 71
2019-09-17 21:00:00 23.3 9 Oeste 18 Sudoeste 0 1011.4 -0.3 63
2019-09-15 18:00:00 26.5 21 Sudoeste 34 Sudoeste 0 1014.8 -0.7 65
2019-09-15 17:00:00 27 19 Sudoeste 34 Sudoeste 0 1015 -1 66
2019-09-15 16:00:00 28 20 Sudoeste 33 Sudoeste 0 1015.3 -1.1 60
2019-09-15 15:00:00 28.5 21 Sudoeste 32 Sudoeste 0 1015.5 -1 57
2019-09-15 14:00:00 28.6 18 Sudoeste 27 Sudoeste 0 1016 -0.4 57
2019-09-15 13:00:00 28.6 15 Sudoeste 23 Sudoeste 0 1016.4 0.4 57
2019-09-15 12:00:00 27.4 9 Sudoeste 17 Sudoeste 0 1016.5 0.7 61
2019-09-15 11:00:00 25 4 Nordeste 9 Norte 0 1016.4 0.8 62
2019-09-15 10:00:00 21.2 6 Nordeste 10 Nordeste 0 1016 0.5 70
2019-09-15 09:00:00 18.8 5 Norte 12 Norte 0 1015.8 0.5 77
2019-09-15 08:00:00 18.3 7 Norte 11 Norte 0 1015.6 0.3 77
2019-09-15 07:00:00 18.3 5 Nordeste 11 Nordeste 0 1015.5 -0.1 73
2019-09-15 06:00:00 18.7 6 Nordeste 9 Norte 0 1015.3 -0.5 71
2019-09-15 05:00:00 19 5 Nordeste 9 Nordeste 0 1015.3 -0.7 71
2019-09-15 04:00:00 19.8 6 Nordeste 10 Norte 0 1015.6 -0.6 67
2019-09-15 03:00:00 19.7 3 Nordeste 6 Norte 0 1015.8 -0.5 68
2019-09-15 02:00:00 20.7 2 Este 4 Norte 0 1016 -0.3 65
2019-09-15 01:00:00 21.3 0 Calma 3 Sudeste 0 1016.2 0.6 67
2019-09-15 00:00:00 22 0 Calma 8 Nordeste 0 1016.3 1.4 63
2019-09-14 23:00:00 23.2 5 Nordeste 10 Nordeste 0 1016.3 1.9 59
2019-09-14 22:00:00 24.1 4 Nordeste 12 Este 0 1015.6 1.4 60
2019-09-14 21:00:00 25.4 5 Este 16 Nordeste 0 1014.9 0.7 55
2019-09-14 20:00:00 27.3 10 Este 23 Nordeste 0 1014.4 0.2 46
2019-09-14 19:00:00 28.2 10 Este 21 Este 0 1014.2 -0.4 44
2019-09-14 18:00:00 28.6 9 Nordeste 25 Este 0 1014.2 -1.1 43
2019-09-14 17:00:00 27.8 12 Este 22 Este 0 1014.2 -1.8 46
2019-09-14 16:00:00 26.2 14 Este 24 Este 0 1014.6 -1.5 53
2019-09-14 15:00:00 24.3 11 Este 21 Este 0.6 1015.3 -0.9 64
2019-09-14 14:00:00 22 10 Sudeste 30 Sudeste 0.6 1016 -0.3 80
2019-09-14 13:00:00 26.3 18 Este 31 Este 0 1016.1 0.2 49
2019-09-14 12:00:00 26.6 15 Este 24 Nordeste 0 1016.2 0.4 49
2019-09-14 11:00:00 24.8 14 Este 28 Sudeste 0 1016.3 0.8 55
2019-09-14 10:00:00 23 9 Nordeste 15 Nordeste 0 1015.9 1 57
2019-09-14 09:00:00 19.3 5 Norte 9 Nordeste 0 1015.8 0.6 65
2019-09-14 08:00:00 18.8 4 Nordeste 15 Norte 0 1015.5 0.2 65
2019-09-14 07:00:00 18.9 8 Norte 21 Norte 0 1014.9 -0.9 65
2019-09-14 06:00:00 18.7 9 Noroeste 17 Noroeste 0 1015.2 -1.4 65
2019-09-14 05:00:00 18.4 4 Nordeste 9 Nordeste 0 1015.3 -1.6 63
2019-09-14 04:00:00 19 6 Nordeste 18 Norte 0 1015.8 -1.4 60
2019-09-14 03:00:00 19.4 7 Norte 13 Norte 0 1016.6 -0.4 60
2019-09-14 02:00:00 19.4 4 Nordeste 8 Este 0 1016.9 -0.2 59
2019-09-14 01:00:00 20.2 6 Nordeste 11 Nordeste 0 1017.2 0.4 53
2019-09-14 00:00:00 20.8 5 Nordeste 8 Nordeste 0 1017 1.4 51
2019-09-13 23:00:00 21.9 6 Este 12 Este 0 1017.1 1.5 50
2019-09-13 22:00:00 23.2 6 Nordeste 18 Este 0 1016.8 1.6 49
2019-09-13 21:00:00 24.7 8 Oeste 21 Sur 0 1015.6 0.8 49
2019-09-13 20:00:00 26.4 17 Sudeste 28 Sudeste 0 1015.6 1.1 38
2019-09-13 19:00:00 28.2 14 Este 29 Este 0 1015.2 0.4 36
2019-09-13 18:00:00 28.2 14 Este 37 Este 0 1014.8 -0.7 37
2019-09-13 17:00:00 30.4 11 Nordeste 31 Este 0 1014.5 -1.5 32
2019-09-13 16:00:00 29.7 17 Este 39 Este 0 1014.8 -1.9 30
2019-09-13 15:00:00 28.8 24 Este 40 Este 0 1015.5 -1.6 33
2019-09-13 14:00:00 28.5 19 Este 41 Este 0 1016 -0.6 34
2019-09-13 13:00:00 27.5 24 Este 43 Este 0 1016.7 0.2 37
2019-09-13 12:00:00 26.5 24 Este 42 Este 0 1017.1 0.4 40
2019-09-13 11:00:00 24.8 17 Nordeste 37 Este 0 1016.6 -0.1 46
2019-09-13 10:00:00 23 9 Nordeste 17 Nordeste 0 1016.5 -0.2 53
2019-09-13 09:00:00 20.4 6 Norte 14 Nordeste 0 1016.7 0.2 61
2019-09-13 08:00:00 19.9 7 Norte 17 Norte 0 1016.7 -0.3 62
2019-09-13 07:00:00 19.9 9 Nordeste 20 Nordeste 0 1016.7 -1.2 66
2019-09-13 06:00:00 20 6 Norte 20 Nordeste 0 1016.5 -1.4 69
2019-09-13 05:00:00 20.7 10 Nordeste 17 Nordeste 0 1017 -0.9 67
2019-09-13 04:00:00 21.2 9 Nordeste 19 Este 0 1017.9 -0.8 64
2019-09-13 03:00:00 21.7 6 Nordeste 15 Este 0 1017.9 -0.9 60
2019-09-13 02:00:00 22.5 12 Este 32 Nordeste 0 1017.9 -0.6 57
2019-09-13 01:00:00 22.5 9 Nordeste 15 Este 0 1018.7 0.2 55
2019-09-13 00:00:00 21.8 3 Nordeste 10 Noroeste 0 1018.8 1 58
2019-09-12 23:00:00 23.1 10 Noroeste 15 Noroeste 0 1018.5 0.7 57
2019-09-12 22:00:00 23.1 8 Noroeste 17 Noroeste 0 1018.5 1 53
2019-09-12 21:00:00 23.9 10 Oeste 18 Sudoeste 0 1017.8 0.6 50
2019-09-12 20:00:00 24.8 15 Sudoeste 24 Sur 0 1017.8 0.5 53
2019-09-12 19:00:00 28.4 10 Sur 41 Este 0 1017.5 -0.1 43
2019-09-12 18:00:00 30.1 19 Este 40 Sudeste 0 1017.2 -0.7 29
2019-09-12 17:00:00 30 19 Este 40 Este 0 1017.3 -0.9 29
2019-09-12 16:00:00 30.1 24 Este 42 Este 0 1017.6 -1 30
2019-09-12 15:00:00 29.6 25 Este 49 Este 0 1017.9 -0.9 31
2019-09-12 14:00:00 29.3 27 Este 46 Este 0 1018.2 -0.8 31
2019-09-12 13:00:00 27.8 26 Este 51 Este 0 1018.6 0.2 36
2019-09-12 12:00:00 27 27 Este 44 Este 0 1018.8 0.4 37
2019-09-12 11:00:00 25.5 15 Este 27 Nordeste 0 1019 0.7 38
2019-09-12 10:00:00 22.3 6 Nordeste 12 Nordeste 0 1018.4 0.7 40
2019-09-12 09:00:00 18.2 6 Norte 11 Norte 0 1018.4 0.6 47
2019-09-12 08:00:00 17.4 7 Nordeste 18 Nordeste 0 1018.3 0.7 52
2019-09-12 07:00:00 18.7 11 Nordeste 21 Este 0 1017.7 0.1 49
2019-09-12 06:00:00 19.3 8 Nordeste 18 Nordeste 0 1017.8 0.1 47
2019-09-12 05:00:00 20 13 Nordeste 22 Nordeste 0 1017.6 0.2 48
2019-09-12 04:00:00 18.8 9 Nordeste 15 Nordeste 0 1017.6 0.6 64
2019-09-12 03:00:00 18.9 7 Nordeste 14 Nordeste 0 1017.7 0.9 68
2019-09-12 02:00:00 19 8 Nordeste 14 Nordeste 0 1017.4 0.7 70
2019-09-12 01:00:00 19.5 7 Nordeste 19 Este 0 1017 0.4 71
2019-09-12 00:00:00 20.8 6 Nordeste 15 Oeste 0 1016.8 1.3 72
2019-09-11 23:00:00 21.8 12 Oeste 22 Oeste 0 1016.7 1.6 69
2019-09-11 22:00:00 21.6 11 Sur 22 Sudoeste 0 1016.6 1.8 67
2019-09-11 21:00:00 22.8 15 Sudoeste 27 Oeste 0 1015.5 0.5 55
2019-09-11 20:00:00 24.7 21 Oeste 34 Oeste 0 1015.1 0.2 46
2019-09-11 19:00:00 26.7 24 Sudoeste 34 Oeste 0 1014.8 -0.5 34
2019-09-11 18:00:00 27.5 22 Sudoeste 30 Sudoeste 0 1015 -1.1 34
2019-09-11 17:00:00 29.6 19 Sudoeste 30 Sudoeste 0 1014.9 -1.9 30
2019-09-11 16:00:00 30.5 11 Norte 30 Nordeste 0 1015.3 -2 21
2019-09-11 15:00:00 29.9 12 Nordeste 32 Noroeste 0 1016.1 -1.7 21
2019-09-11 14:00:00 28.5 13 Este 28 Este 0 1016.8 -1.1 24
2019-09-11 13:00:00 27.6 14 Nordeste 26 Este 0 1017.3 -0.4 24
2019-09-11 12:00:00 26.3 14 Nordeste 27 Nordeste 0 1017.8 0.3 26
2019-09-11 11:00:00 23.7 10 Nordeste 21 Norte 0 1017.9 1.5 30
2019-09-11 10:00:00 21.2 6 Norte 12 Noroeste 0 1017.7 2.1 37
2019-09-11 09:00:00 16.8 6 Noroeste 13 Noroeste 0 1017.5 2.3 49
2019-09-11 08:00:00 16.2 5 Norte 22 Nordeste 0 1016.4 1.1 50
2019-09-11 07:00:00 17.6 9 Noroeste 30 Norte 0 1015.6 0.3 47
2019-09-11 06:00:00 18 13 Norte 26 Norte 0 1015.2 -0.2 48
2019-09-11 05:00:00 18.6 11 Norte 25 Norte 0 1015.3 -0.1 47
2019-09-11 04:00:00 18.9 5 Oeste 24 Nordeste 0 1015.3 -0.4 49
2019-09-11 03:00:00 19.7 8 Norte 24 Oeste 0 1015.4 0.2 47
2019-09-11 02:00:00 20.2 12 Noroeste 27 Noroeste 0 1015.4 0.4 42
2019-09-11 01:00:00 19.8 13 Noroeste 29 Noroeste 0 1015.7 1.5 31
2019-09-11 00:00:00 20.9 11 Noroeste 21 Noroeste 0 1015.2 1.9 25
2019-09-10 23:00:00 22.3 11 Noroeste 20 Noroeste 0 1015 2.2 23
2019-09-10 22:00:00 24.9 5 Noroeste 23 Nordeste 0 1014.2 1.7 18
2019-09-10 21:00:00 26.3 13 Norte 28 Norte 0 1013.3 0.7 16
2019-09-10 20:00:00 27.8 17 Norte 37 Norte 0 1012.8 -0.2 15
2019-09-10 19:00:00 28.7 18 Norte 43 Norte 0 1012.5 -0.9 15
2019-09-10 18:00:00 28.5 16 Norte 44 Norte 0 1012.6 -1.3 17
2019-09-10 17:00:00 28.1 17 Norte 42 Norte 0 1013 -2 25
2019-09-10 16:00:00 27.4 19 Norte 41 Norte 0 1013.4 -2.1 29
2019-09-10 15:00:00 26.4 21 Noroeste 58 Oeste 0 1013.9 -2.1 35
2019-09-10 14:00:00 24.4 18 Noroeste 39 Noroeste 0 1015 -0.9 41
2019-09-10 13:00:00 22.4 18 Noroeste 33 Noroeste 0 1015.5 -0.1 48
2019-09-10 12:00:00 21.5 25 Noroeste 36 Noroeste 0 1016 0.6 55
2019-09-10 11:00:00 20.4 12 Noroeste 43 Noroeste 0 1015.9 1.4 63
2019-09-10 10:00:00 18.9 11 Noroeste 34 Oeste 0 1015.6 0.9 69
2019-09-10 09:00:00 17.1 8 Noroeste 30 Noroeste 0 1015.4 0.6 77
2019-09-10 08:00:00 16.6 10 Noroeste 32 Oeste 0 1014.5 -0.6 77
2019-09-10 07:00:00 16.6 8 Noroeste 26 Noroeste 0 1014.7 -0.7 75
2019-09-10 06:00:00 16.4 10 Oeste 34 Noroeste 0 1014.8 -0.9 72
2019-09-10 05:00:00 17 14 Noroeste 35 Oeste 0 1015.1 -0.3 69
2019-09-10 04:00:00 18 13 Noroeste 33 Noroeste 0 1015.4 -0.3 63
2019-09-10 03:00:00 19.1 19 Noroeste 31 Noroeste 0 1015.7 0.2 59
2019-09-10 02:00:00 20 19 Noroeste 30 Noroeste 0 1015.4 0.4 57
2019-09-10 01:00:00 21.7 19 Noroeste 30 Noroeste 0 1015.7 1.2 48
2019-09-10 00:00:00 23.8 22 Noroeste 37 Noroeste 0 1015.5 1.5 33
2019-09-09 23:00:00 25.3 12 Oeste 22 Noroeste 0 1015 1.5 37
2019-09-09 22:00:00 26.9 13 Noroeste 33 Noroeste 0 1014.5 1.1 37
2019-09-09 21:00:00 26.5 12 Oeste 27 Oeste 0 1014 0.5 60
2019-09-09 20:00:00 26.7 23 Sudoeste 41 Sudoeste 0 1013.5 -0.1 59
2019-09-09 19:00:00 28.3 30 Sudoeste 41 Sudoeste 0 1013.4 -0.9 50
2019-09-09 18:00:00 29 26 Sudoeste 40 Sudoeste 0 1013.5 -1.4 47
2019-09-09 17:00:00 29.1 30 Sudoeste 41 Sudoeste 0 1013.6 -1.8 50
2019-09-09 16:00:00 30 26 Sudoeste 34 Sudoeste 0 1014.3 -1.7 47
2019-09-09 15:00:00 30.5 22 Sudoeste 30 Sudoeste 0 1014.9 -1.4 44
2019-09-09 14:00:00 30.2 16 Sudoeste 26 Sudoeste 0 1015.4 -0.7 45
2019-09-09 13:00:00 30.2 10 Sudoeste 17 Sudoeste 0 1016 0.2 43
2019-09-09 12:00:00 27.9 7 Oeste 15 Oeste 0 1016.3 0.8 49
2019-09-09 11:00:00 24.8 7 Noroeste 12 Oeste 0 1016.1 0.8 61
2019-09-09 10:00:00 22.9 7 Noroeste 12 Noroeste 0 1015.8 1 70
2019-09-09 09:00:00 20.2 8 Noroeste 14 Noroeste 0 1015.5 0.8 81
2019-09-09 08:00:00 19.6 7 Noroeste 13 Noroeste 0 1015.3 0.1 83
2019-09-09 07:00:00 19.8 6 Noroeste 12 Noroeste 0 1014.8 -0.3 85
2019-09-09 06:00:00 20.4 6 Noroeste 10 Noroeste 0 1014.7 -0.5 84
2019-09-09 05:00:00 21.1 4 Noroeste 10 Noroeste 0 1015.2 -0.3 81
2019-09-09 04:00:00 22 6 Noroeste 12 Noroeste 0 1015.1 -0.7 80
2019-09-09 03:00:00 21.5 7 Noroeste 14 Noroeste 0 1015.2 -1.1 85
2019-09-09 02:00:00 22.1 10 Noroeste 18 Noroeste 0 1015.5 -0.5 83
2019-09-09 01:00:00 23.4 13 Oeste 19 Oeste 0 1015.8 0.6 79
2019-09-09 00:00:00 23.5 9 Sudoeste 17 Sudoeste 0 1016.3 1.9 77
2019-09-08 23:00:00 23.8 9 Sudoeste 18 Sur 0 1016 2.6 78
2019-09-08 22:00:00 24.2 13 Sur 24 Sudoeste 0 1015.2 1.2 78
2019-09-08 21:00:00 24.8 13 Sudoeste 28 Sudoeste 0 1014.4 0.3 75
2019-09-08 20:00:00 26.6 18 Oeste 24 Oeste 0 1013.4 0.7 65
2019-09-08 19:00:00 28.2 16 Sur 23 Sur 0 1014 0.9 56
2019-09-08 18:00:00 28.9 15 Sur 37 Sur 0 1014.1 0.3 55
2019-09-08 17:00:00 29.4 27 Sur 42 Sur 0 1012.7 -0.7 52
2019-09-08 16:00:00 30.1 26 Sur 38 Sur 0 1013.1 -0.3 45
2019-09-08 15:00:00 29.8 28 Sur 39 Sur 0 1013.8 0 52
2019-09-08 14:00:00 31.8 7 Este 18 Sudeste 0 1013.4 -0.4 38
2019-09-08 13:00:00 30.1 7 Este 20 Nordeste 0 1013.4 -0.1 46
2019-09-08 12:00:00 28.7 8 Este 19 Nordeste 0 1013.8 0.5 50
2019-09-08 11:00:00 26.6 6 Norte 10 Norte 0 1013.8 0.7 55
2019-09-08 10:00:00 23.7 5 Norte 12 Nordeste 0 1013.5 0.8 67
2019-09-08 09:00:00 21.4 4 Norte 9 Norte 0 1013.3 0.8 78
2019-09-08 08:00:00 20.6 3 Nordeste 6 Nordeste 0 1013.1 0.6 80
2019-09-08 07:00:00 21.3 7 Nordeste 16 Norte 0 1012.7 -0.2 75
2019-09-08 06:00:00 21.7 8 Norte 15 Norte 0 1012.5 -1.1 74
2019-09-08 05:00:00 23.4 9 Noroeste 13 Norte 0 1012.5 -1.4 70
2019-09-08 04:00:00 23.4 5 Noroeste 8 Noroeste 0 1012.9 -0.9 72
2019-09-08 03:00:00 23.8 4 Noroeste 12 Sudoeste 0 1013.6 -0.3 73
2019-09-08 02:00:00 24.3 9 Sudoeste 17 Sudoeste 0 1013.9 0.6 72
2019-09-08 01:00:00 24.7 13 Sur 22 Sudoeste 0 1013.8 1.4 67
2019-09-08 00:00:00 25 10 Oeste 20 Sudoeste 0 1013.9 2.4 69
2019-09-07 23:00:00 25.3 11 Oeste 21 Oeste 0 1013.3 1.8 66
2019-09-07 22:00:00 25.8 15 Oeste 19 Oeste 0 1012.4 1.4 63
2019-09-07 21:00:00 26.6 14 Sudoeste 21 Sudoeste 0 1011.5 0.3 60
2019-09-07 20:00:00 28.3 14 Sur 29 Sur 0 1011.5 0.1 53
2019-09-07 19:00:00 29.6 17 Sudoeste 32 Sur 0 1011 -0.8 49
2019-09-07 18:00:00 30.5 23 Sur 36 Sur 0 1011.2 -1 46
2019-09-07 17:00:00 31.6 22 Sudoeste 38 Sur 0 1011.4 -1 43
2019-09-07 16:00:00 32.4 21 Sur 33 Sudoeste 0 1011.8 -0.9 39
2019-09-07 15:00:00 33.1 18 Sur 30 Sur 0 1012.2 -0.8 37
2019-09-07 14:00:00 33.1 12 Sur 24 Sur 0 1012.4 -0.8 37
2019-09-07 13:00:00 32.1 13 Sur 21 Sur 0 1012.7 -0.4 36
2019-09-07 12:00:00 30.2 8 Sudeste 16 Sur 0 1013 0.1 41
2019-09-07 11:00:00 27.3 5 Este 9 Este 0 1013.2 0.5 50
2019-09-07 10:00:00 23.8 5 Nordeste 10 Nordeste 0 1013.1 0.9 65
2019-09-07 09:00:00 21.6 6 Nordeste 11 Nordeste 0 1012.9 1.1 75
2019-09-07 08:00:00 20.4 8 Nordeste 12 Nordeste 0 1012.7 0.6 78
2019-09-07 07:00:00 20.7 7 Nordeste 12 Nordeste 0 1012.2 -0.1 78
2019-09-07 06:00:00 22.1 8 Nordeste 10 Nordeste 0 1011.8 -0.7 70
2019-09-07 05:00:00 24 5 Sudoeste 15 Sudoeste 0 1012.1 -0.3 64
2019-09-07 04:00:00 24.5 9 Sudoeste 16 Sudoeste 0 1012.3 0.2 64
2019-09-07 03:00:00 25.3 11 Sudoeste 22 Sudoeste 0 1012.5 0.6 62
2019-09-07 02:00:00 25.9 13 Sudoeste 21 Oeste 0 1012.4 0.7 63
2019-09-07 01:00:00 26.2 13 Oeste 18 Oeste 0 1012.1 0.6 65
2019-09-07 00:00:00 26.3 9 Sudoeste 13 Sudoeste 0 1011.9 1.4 64
2019-09-06 23:00:00 27.3 11 Sudoeste 19 Oeste 0 1011.7 0.9 54
2019-09-06 22:00:00 27.9 11 Oeste 20 Oeste 0 1011.5 0.6 51
2019-09-06 21:00:00 28.4 11 Sudoeste 18 Sudoeste 0 1010.5 -0.2 52
2019-09-06 20:00:00 29.5 13 Sur 23 Sudoeste 0 1010.8 0 51
2019-09-06 19:00:00 30.6 16 Sudoeste 22 Sudoeste 0 1010.9 -0.9 47
2019-09-06 18:00:00 32.7 18 Sudoeste 28 Sudoeste 0 1010.7 -1.8 43
2019-09-06 17:00:00 33 19 Sur 27 Sudoeste 0 1010.8 -2.2 44
2019-09-06 16:00:00 32.8 17 Sudoeste 26 Sudoeste 0 1011.8 -1.5 45
2019-09-06 15:00:00 32.8 14 Sudoeste 26 Sur 0 1012.5 -1.1 45
2019-09-06 14:00:00 32.1 15 Sudoeste 24 Sudoeste 0 1013 -0.7 48
2019-09-06 13:00:00 31 6 Nordeste 14 Nordeste 0 1013.3 -0.2 48
2019-09-06 12:00:00 28.9 5 Este 14 Este 0 1013.6 0.3 56
2019-09-06 11:00:00 26.9 5 Nordeste 10 Este 0 1013.7 0.6 62
2019-09-06 10:00:00 23.5 3 Nordeste 11 Norte 0 1013.5 0.8 76
2019-09-06 09:00:00 20.8 4 Nordeste 9 Nordeste 0 1013.3 0.6 85
2019-09-06 08:00:00 19.9 4 Nordeste 10 Nordeste 0 1013.1 0.4 90
2019-09-06 07:00:00 20 6 Nordeste 10 Este 0 1012.7 0.1 87
2019-09-06 06:00:00 20.5 7 Nordeste 12 Nordeste 0 1012.7 0 91
2019-09-06 05:00:00 20.8 8 Nordeste 13 Nordeste 0 1012.7 0.2 93
2019-09-06 04:00:00 21 6 Nordeste 10 Nordeste 0 1012.6 -0.2 93
2019-09-06 03:00:00 21.7 5 Nordeste 12 Noroeste 0 1012.7 -0.1 89
2019-09-06 02:00:00 22.5 7 Oeste 9 Noroeste 0 1012.5 -0.4 89
2019-09-06 01:00:00 23.1 4 Sur 8 Sudoeste 0 1012.8 0.6 89
2019-09-06 00:00:00 23.4 6 Sur 14 Sur 0 1012.8 1.2 88
2019-09-05 23:00:00 23.9 9 Noroeste 18 Oeste 0 1012.9 1.2 85
2019-09-05 22:00:00 24.7 12 Sudoeste 18 Sudoeste 0 1012.2 0.6 80
2019-09-05 21:00:00 25.8 10 Sudoeste 16 Sudoeste 0 1011.6 0 70
2019-09-05 20:00:00 27.5 13 Sudoeste 25 Sur 0 1011.7 0 61
2019-09-05 19:00:00 28.8 14 Sur 24 Sudoeste 0 1011.6 -0.8 54
2019-09-05 18:00:00 29.6 17 Sudoeste 30 Sur 0 1011.6 -1.4 54
2019-09-05 17:00:00 30 19 Sur 28 Sur 0 1011.7 -1.3 55
2019-09-05 16:00:00 30.7 18 Sudoeste 26 Sudoeste 0 1012.4 -0.8 49
2019-09-05 15:00:00 29.5 18 Sur 26 Sur 0 1013 -0.1 56
2019-09-05 14:00:00 29.9 17 Sur 27 Sur 0 1013 0 55
2019-09-05 13:00:00 29.7 14 Sur 26 Sur 0 1013.2 0.3 52
2019-09-05 12:00:00 28.7 13 Sur 22 Sur 0 1013.1 0.3 54
2019-09-05 11:00:00 25.3 5 Sudeste 8 Sudeste 0 1013 0.7 80
2019-09-05 10:00:00 21.5 6 Nordeste 8 Nordeste 0 1012.9 0.9 97
2019-09-05 09:00:00 20.5 2 Nordeste 7 Este 0 1012.8 0.9 100
2019-09-05 08:00:00 20.5 4 Nordeste 9 Este 0 1012.3 0.4 99
2019-09-05 07:00:00 20.7 3 Nordeste 8 Nordeste 0 1012 -0.3 99
2019-09-05 06:00:00 20.8 6 Norte 9 Nordeste 0 1011.9 -0.6 95
2019-09-05 05:00:00 21.2 6 Nordeste 9 Nordeste 0 1011.9 -0.9 90
2019-09-05 04:00:00 22 2 Este 6 Sur 0 1012.3 -1 92
2019-09-05 03:00:00 22.2 3 Sudoeste 7 Sur 0 1012.5 -0.8 89
2019-09-05 02:00:00 22.7 3 Sur 4 Sudeste 0 1012.8 -0.6 88
2019-09-05 01:00:00 23.4 3 Sudeste 4 Sudeste 0 1013.3 -0.3 85
2019-09-05 00:00:00 23.6 3 Sudeste 8 Este 0 1013.3 0.1 82
2019-09-04 23:00:00 24.4 2 Este 9 Sudeste 0 1013.4 0 79
2019-09-04 22:00:00 25.4 4 Sur 20 Oeste 0 1013.6 -0.2 73
2019-09-04 21:00:00 25.8 12 Sudoeste 22 Sudoeste 0 1013.2 -0.4 75
2019-09-04 20:00:00 26.7 12 Sudoeste 21 Sudoeste 0 1013.4 -0.8 68
2019-09-04 19:00:00 27.8 13 Sudoeste 27 Sudoeste 0 1013.8 -0.8 62
2019-09-04 18:00:00 28.9 19 Sudoeste 30 Sudoeste 0 1013.6 -1.5 57
2019-09-04 17:00:00 30.1 16 Sudoeste 24 Sudoeste 0 1014.2 -1.1 51
2019-09-04 16:00:00 31.2 15 Sur 27 Sudoeste 0 1014.6 -1.1 44
2019-09-04 15:00:00 33 19 Sudoeste 28 Sudoeste 0 1015.1 -1.1 37
2019-09-04 14:00:00 33.8 11 Sudoeste 23 Sudoeste 0 1015.3 -1 33
2019-09-04 13:00:00 32.5 10 Sudoeste 20 Sudoeste 0 1015.7 -0.4 37
2019-09-04 12:00:00 30.1 7 Sudoeste 14 Oeste 0 1016.2 0.5 49
2019-09-04 11:00:00 27.4 6 Noroeste 13 Noroeste 0 1016.3 1 55
2019-09-04 10:00:00 24 5 Nordeste 9 Nordeste 0 1016.1 1.2 61
2019-09-04 09:00:00 21.7 3 Nordeste 10 Norte 0 1015.7 0.9 65
2019-09-04 08:00:00 22.8 5 Noroeste 11 Noroeste 0 1015.3 0.3 60
2019-09-04 07:00:00 22.2 4 Noroeste 9 Oeste 0 1014.9 -0.3 64
2019-09-04 06:00:00 22.2 5 Oeste 8 Oeste 0 1014.8 -0.8 61
2019-09-04 05:00:00 22.3 2 Oeste 8 Oeste 0 1015 -0.8 66
2019-09-04 04:00:00 22.9 6 Oeste 11 Noroeste 0 1015.2 -0.7 63
2019-09-04 03:00:00 23.3 2 Sudoeste 9 Noroeste 0 1015.6 -0.2 77
2019-09-04 02:00:00 24 3 Sur 9 Noroeste 0 1015.8 -0.1 75
2019-09-04 01:00:00 24.8 7 Noroeste 13 Oeste 0 1015.9 0.7 73
2019-09-04 00:00:00 25.1 11 Oeste 22 Oeste 0 1015.8 0.9 72
2019-09-03 23:00:00 25.5 14 Oeste 22 Oeste 0 1015.9 0.5 72
2019-09-03 22:00:00 26.3 13 Sudoeste 22 Sudoeste 0 1015.2 0.5 70
2019-09-03 21:00:00 28.1 13 Sudoeste 18 Sur 0 1014.9 0.4 61
2019-09-03 20:00:00 29.3 9 Oeste 23 Oeste 0 1015.4 0.5 57
2019-09-03 19:00:00 30.6 18 Sudoeste 27 Sudoeste 0 1014.7 -0.5 50
2019-09-03 18:00:00 33.2 19 Sudoeste 30 Sur 0 1014.5 -1.3 42
2019-09-03 17:00:00 34.1 16 Sudoeste 27 Sudoeste 0 1014.9 -1.1 34
2019-09-03 16:00:00 33.9 17 Sudoeste 28 Oeste 0 1015.2 -1.3 35
2019-09-03 15:00:00 33.8 14 Sudoeste 23 Sudoeste 0 1015.8 -0.9 38
2019-09-03 14:00:00 33 10 Sudoeste 19 Sudoeste 0 1016 -0.6 38
2019-09-03 13:00:00 32.1 9 Sudoeste 15 Sudoeste 0 1016.5 0.3 38
2019-09-03 12:00:00 30 6 Sudoeste 11 Sudoeste 0 1016.7 1 43
2019-09-03 11:00:00 27.3 4 Sur 9 Nordeste 0 1016.6 1.5 50
2019-09-03 10:00:00 23.4 8 Nordeste 13 Nordeste 0 1016.2 1.5 59
2019-09-03 09:00:00 20.7 10 Nordeste 13 Nordeste 0 1015.7 1.3 64
2019-09-03 08:00:00 19.7 7 Nordeste 10 Nordeste 0 1015.1 0.6 70
2019-09-03 07:00:00 20.2 4 Nordeste 8 Nordeste 0 1014.7 0.2 68
2019-09-03 06:00:00 20.2 2 Noroeste 9 Nordeste 0 1014.4 -0.3 70
2019-09-03 05:00:00 21.2 3 Nordeste 5 Nordeste 0 1014.5 0 71
2019-09-03 04:00:00 21.5 2 Sur 5 Oeste 0 1014.5 0.2 66
2019-09-03 03:00:00 22.1 4 Nordeste 6 Este 0 1014.7 0.5 73
2019-09-03 02:00:00 23.8 4 Noroeste 9 Noroeste 0 1014.5 0.6 56
2019-09-03 01:00:00 23.3 4 Noroeste 9 Noroeste 0 1014.3 1 62
2019-09-03 00:00:00 24.2 4 Noroeste 10 Oeste 0 1014.2 1.4 59
2019-09-02 23:00:00 24.6 5 Oeste 12 Oeste 0 1013.9 1.7 58
2019-09-02 22:00:00 25.7 9 Oeste 20 Oeste 0 1013.3 1.5 58
2019-09-02 21:00:00 26.6 11 Oeste 27 Sudoeste 0 1012.8 1.1 55
2019-09-02 20:00:00 28.5 19 Sudoeste 32 Oeste 0 1012.2 0.4 48
2019-09-02 19:00:00 31 21 Sudoeste 30 Oeste 0 1011.8 -0.3 39
2019-09-02 18:00:00 32.2 20 Sudoeste 30 Oeste 0 1011.7 -0.8 37
2019-09-02 17:00:00 32.2 21 Oeste 28 Oeste 0 1011.8 -0.8 37
2019-09-02 16:00:00 33.1 17 Sudoeste 29 Sudoeste 0 1012.1 -0.5 37
2019-09-02 15:00:00 32.9 14 Sudoeste 26 Sudoeste 0 1012.5 0.1 37
2019-09-02 14:00:00 31.5 17 Sudoeste 26 Sudoeste 0 1012.6 0.3 45
2019-09-02 13:00:00 32.7 12 Sur 21 Sur 0 1012.6 0.6 40
2019-09-02 12:00:00 30.3 9 Sur 17 Sudeste 0 1012.4 0.6 49
2019-09-02 11:00:00 27.1 6 Sudeste 10 Sudeste 0 1012.3 1.1 65
2019-09-02 10:00:00 23.2 6 Este 11 Nordeste 0 1012 1.4 73
2019-09-02 09:00:00 20.2 8 Nordeste 12 Norte 0 1011.8 1.2 81
2019-09-02 08:00:00 19.3 9 Norte 16 Norte 0 1011.2 0.6 82
2019-09-02 07:00:00 19.8 3 Nordeste 5 Este 0 1010.6 -0.1 89
2019-09-02 06:00:00 20.3 2 Este 5 Nordeste 0 1010.6 -0.1 87
2019-09-02 05:00:00 21.4 2 Nordeste 4 Nordeste 0 1010.6 -0.2 93
2019-09-02 04:00:00 21.5 3 Este 6 Sudeste 0 1010.7 0.1 89
2019-09-02 03:00:00 22.3 0 Calma 5 Sur 0 1010.7 0 89
2019-09-02 02:00:00 22.6 4 Sur 6 Sur 0 1010.8 -0.1 88
2019-09-02 01:00:00 22.9 3 Sudeste 5 Sur 0 1010.6 0.2 81
2019-09-02 00:00:00 23.5 3 Oeste 7 Noroeste 0 1010.7 0.6 75
2019-09-01 23:00:00 24.1 3 Nordeste 6 Sur 0 1010.9 0.7 78
2019-09-01 22:00:00 24.4 6 Sur 8 Sur 0 1010.4 0.3 78
2019-09-01 21:00:00 26 6 Sudoeste 14 Sudoeste 0 1010.1 -0.3 68
2019-09-01 20:00:00 27.6 10 Sudoeste 21 Sudoeste 0 1010.2 -0.4 62
2019-09-01 19:00:00 29.3 13 Sudoeste 24 Oeste 0 1010.1 -1.1 58
2019-09-01 18:00:00 29.9 17 Sudoeste 26 Sudoeste 0 1010.4 -1.2 50
2019-09-01 17:00:00 29.8 17 Sudoeste 30 Sur 0 1010.6 -1.5 51
2019-09-01 16:00:00 29.4 17 Sudoeste 28 Sur 0 1011.2 -1.2 56
2019-09-01 15:00:00 29.3 17 Sur 30 Sur 0 1011.6 -0.9 54
2019-09-01 14:00:00 29.4 16 Sudoeste 25 Sur 0 1012.1 -0.5 57
2019-09-01 13:00:00 29.2 15 Sudoeste 24 Sur 0 1012.4 -0.1 60
2019-09-01 12:00:00 28.6 6 Sur 14 Sur 0 1012.5 0.1 59
2019-09-01 11:00:00 26.3 6 Sur 15 Sudeste 0 1012.6 0.6 69
2019-09-01 10:00:00 24 12 Sudeste 20 Sudeste 0 1012.5 1 78
2019-09-01 09:00:00 21.3 6 Nordeste 10 Nordeste 0 1012.4 1.1 71
2019-09-01 08:00:00 20.5 8 Nordeste 10 Nordeste 0 1012 0.6 75
2019-09-01 07:00:00 20.7 5 Nordeste 8 Nordeste 0 1011.5 0 71
2019-09-01 06:00:00 21 0 Calma 5 Nordeste 0 1011.3 -0.5 71
2019-09-01 05:00:00 21.1 3 Oeste 5 Norte 0 1011.4 -0.8 73
2019-09-01 04:00:00 21.8 2 Sudeste 10 Oeste 0 1011.5 -0.6 71
2019-09-01 03:00:00 22.3 4 Norte 8 Norte 0 1011.8 -0.4 70
2019-09-01 02:00:00 22.7 5 Nordeste 10 Este 0 1012.2 0.2 76
2019-09-01 01:00:00 23.2 5 Sudeste 6 Sur 0 1012.1 0.2 77
2019-09-01 00:00:00 23.9 3 Sudeste 7 Sudeste 0 1012.2 0.8 74
2019-08-31 23:00:00 24.2 5 Sudeste 9 Sur 0 1012 1 73
2019-08-31 22:00:00 25.4 4 Sudoeste 15 Sudoeste 0 1011.9 1 65
2019-08-31 21:00:00 26.3 10 Sudoeste 19 Sudoeste 0 1011.4 0.3 60
2019-08-31 20:00:00 29.3 11 Sudoeste 21 Sudoeste 0 1011 -0.5 47
2019-08-31 19:00:00 30.5 15 Sudoeste 28 Sudoeste 0 1010.9 -1.1 43
2019-08-31 18:00:00 31.6 18 Sudoeste 29 Sudoeste 0 1011.1 -1.9 39
2019-08-31 17:00:00 33.2 15 Sudoeste 24 Sudoeste 0 1011.5 -1.9 32
2019-08-31 16:00:00 33.1 18 Sudoeste 29 Sudoeste 0 1012 -1.6 31
2019-08-31 15:00:00 33.8 16 Sudoeste 30 Sudoeste 0 1013 -0.9 30
2019-08-31 14:00:00 34.1 14 Sur 23 Sur 0 1013.4 -0.4 29
2019-08-31 13:00:00 33.4 10 Sudoeste 19 Sudoeste 0 1013.6 0.1 30
2019-08-31 12:00:00 31.4 5 Oeste 12 Oeste 0 1013.9 0.5 32
2019-08-31 11:00:00 28.5 4 Nordeste 11 Norte 0 1013.8 0.6 43
2019-08-31 10:00:00 24.9 6 Norte 13 Noroeste 0 1013.5 0.8 47
2019-08-31 09:00:00 22.1 5 Norte 10 Noroeste 0 1013.4 0.8 56
2019-08-31 08:00:00 21 5 Norte 13 Norte 0 1013.2 0 56
2019-08-31 07:00:00 21.6 0 Calma 17 Norte 0 1012.7 -0.5 56
2019-08-31 06:00:00 22.7 8 Norte 13 Nordeste 0 1012.6 -1.1 54
2019-08-31 05:00:00 22.1 7 Nordeste 15 Noroeste 0 1013.2 -0.8 57
2019-08-31 04:00:00 23.8 13 Noroeste 16 Noroeste 0 1013.2 -0.8 56
2019-08-31 03:00:00 23.9 9 Oeste 13 Oeste 0 1013.7 -0.3 52
2019-08-31 02:00:00 23.8 4 Sudoeste 7 Sudoeste 0 1014 -0.2 62
2019-08-31 01:00:00 24.4 3 Sudeste 5 Sudeste 0 1014 0.5 61
2019-08-31 00:00:00 25.1 5 Sur 12 Noroeste 0 1014 1.1 53
2019-08-30 23:00:00 26.1 10 Noroeste 17 Oeste 0 1014.2 1.5 52
2019-08-30 22:00:00 27.3 10 Oeste 24 Sudoeste 0 1013.5 0.5 50
2019-08-30 21:00:00 28.6 14 Oeste 25 Oeste 0 1012.9 -0.3 44
2019-08-30 20:00:00 30.7 14 Sudoeste 27 Sudoeste 0 1012.7 -1 40
2019-08-30 19:00:00 32.5 18 Sudoeste 24 Sudoeste 0 1013 -1.3 35
2019-08-30 18:00:00 33.5 15 Sudoeste 27 Sudoeste 0 1013.2 -1.8 33
2019-08-30 17:00:00 34.5 18 Sudoeste 30 Sur 0 1013.7 -1.7 30
2019-08-30 16:00:00 35.1 17 Sudoeste 27 Sudoeste 0 1014.3 -1.4 28
2019-08-30 15:00:00 34.6 16 Sudoeste 28 Sur 0 1015 -1.1 30
2019-08-30 14:00:00 34.4 18 Sur 29 Sur 0 1015.4 -0.9 32
2019-08-30 13:00:00 33.9 5 Nordeste 13 Este 0 1015.7 -0.4 30
2019-08-30 12:00:00 31.7 5 Este 13 Nordeste 0 1016.1 -0.1 34
2019-08-30 11:00:00 28.1 8 Nordeste 14 Nordeste 0 1016.3 0.4 44
2019-08-30 10:00:00 24.4 6 Nordeste 10 Este 0 1016.1 0.6 55
2019-08-30 09:00:00 21.9 5 Norte 11 Norte 0 1016.2 0.6 62
2019-08-30 08:00:00 20.4 6 Norte 10 Nordeste 0 1015.9 0.4 66
2019-08-30 07:00:00 20.4 7 Nordeste 9 Nordeste 0 1015.5 -0.2 67
2019-08-30 06:00:00 21 5 Nordeste 9 Nordeste 0 1015.6 -0.5 65
2019-08-30 05:00:00 21.7 6 Nordeste 10 Noroeste 0 1015.5 -0.8 61
2019-08-30 04:00:00 22.4 3 Noroeste 9 Noroeste 0 1015.7 -0.7 67
2019-08-30 03:00:00 23.5 6 Noroeste 12 Noroeste 0 1016.1 -0.5 64
2019-08-30 02:00:00 23.7 3 Oeste 11 Oeste 0 1016.3 0 61
2019-08-30 01:00:00 23.9 6 Oeste 12 Noroeste 0 1016.4 1 59
2019-08-30 00:00:00 24.5 10 Noroeste 16 Oeste 0 1016.6 1.5 60
2019-08-29 23:00:00 25.5 12 Oeste 19 Oeste 0 1016.3 1.8 62
2019-08-29 22:00:00 26.5 8 Oeste 17 Sudoeste 0 1015.4 1.3 55
2019-08-29 21:00:00 27.7 12 Sudoeste 27 Sudoeste 0 1015.1 0.8 47
2019-08-29 20:00:00 30.7 16 Sudoeste 25 Sur 0 1014.5 0 38
2019-08-29 19:00:00 33 17 Sudoeste 30 Sur 0 1014.1 -0.6 34
2019-08-29 18:00:00 34.3 17 Sur 32 Sur 0 1014.3 -0.7 31
2019-08-29 17:00:00 35.3 18 Sudoeste 29 Sudoeste 0 1014.5 -0.6 26
2019-08-29 16:00:00 34.9 18 Sudoeste 26 Sudoeste 0 1014.7 -0.8 28
2019-08-29 15:00:00 34.6 18 Sudoeste 27 Oeste 0 1015 -0.3 27
2019-08-29 14:00:00 34.3 13 Sudoeste 24 Sudoeste 0 1015.1 0.3 28
2019-08-29 13:00:00 33.4 5 Este 12 Sudeste 0 1015.5 0.9 31
2019-08-29 12:00:00 31.8 6 Sudeste 12 Sudeste 0 1015.3 1 32
2019-08-29 11:00:00 30.1 5 Este 13 Nordeste 0 1014.8 1 40
2019-08-29 10:00:00 25.1 9 Nordeste 13 Nordeste 0 1014.6 1.3 54
2019-08-29 09:00:00 22.9 6 Nordeste 9 Norte 0 1014.3 0.9 50
2019-08-29 08:00:00 21.9 8 Nordeste 15 Noroeste 0 1013.8 0.3 55
2019-08-29 07:00:00 23.5 9 Norte 17 Norte 0 1013.3 -0.3 55
2019-08-29 06:00:00 23.7 4 Oeste 7 Noroeste 0 1013.4 -0.2 50
2019-08-29 05:00:00 24.5 5 Sudoeste 12 Noroeste 0 1013.5 0.1 47
2019-08-29 04:00:00 25.1 8 Oeste 12 Noroeste 0 1013.6 0.7 44
2019-08-29 03:00:00 25.8 9 Oeste 13 Oeste 0 1013.6 0.6 40
2019-08-29 02:00:00 26.1 4 Sur 17 Norte 0 1013.4 0.4 41
2019-08-29 01:00:00 26.8 4 Norte 17 Oeste 0 1012.9 0.2 39
2019-08-29 00:00:00 24.6 3 Sur 11 Oeste 0 1013 0.9 60
2019-08-28 23:00:00 24.9 2 Sudeste 8 Sudeste 0 1013 0.6 69
2019-08-28 22:00:00 26.4 5 Noroeste 15 Oeste 0 1012.7 0.4 56
2019-08-28 21:00:00 26.8 7 Sudoeste 28 Sudoeste 0 1012.1 -0.1 56
2019-08-28 20:00:00 27.4 19 Sudoeste 29 Sudoeste 0 1012.4 0 50
2019-08-28 19:00:00 28.5 21 Sudoeste 31 Sudoeste 0 1012.3 -0.5 50
2019-08-28 18:00:00 32 19 Sudoeste 30 Sudoeste 0 1012.2 -1.1 36
2019-08-28 17:00:00 32.5 20 Sudoeste 30 Sudoeste 0 1012.4 -1.2 35
2019-08-28 16:00:00 33.4 19 Sudoeste 27 Sudoeste 0 1012.8 -1.5 36
2019-08-28 15:00:00 33.3 19 Sudoeste 29 Sur 0 1013.3 -1.2 39
2019-08-28 14:00:00 33.7 10 Sur 22 Sudoeste 0 1013.6 -0.8 37
2019-08-28 13:00:00 31.6 4 Este 12 Este 0 1014.3 0 43
2019-08-28 12:00:00 29.1 5 Este 15 Este 0 1014.5 0.3 48
2019-08-28 11:00:00 26.5 5 Este 10 Nordeste 0 1014.4 0.7 56
2019-08-28 10:00:00 23.4 3 Nordeste 12 Norte 0 1014.3 1 64
2019-08-28 09:00:00 20.9 4 Nordeste 10 Norte 0 1014.2 0.8 72
2019-08-28 08:00:00 19.3 6 Norte 14 Nordeste 0 1013.7 0.3 78
2019-08-28 07:00:00 19.6 8 Norte 18 Norte 0 1013.3 -0.7 76
2019-08-28 06:00:00 20.9 6 Norte 15 Norte 0 1013.4 -0.7 72
2019-08-28 05:00:00 21.4 6 Norte 13 Norte 0 1013.4 -0.7 73
2019-08-28 04:00:00 20.3 0 Calma 4 Noroeste 0 1014 -0.2 84
2019-08-28 03:00:00 20.7 2 Sudeste 7 Noroeste 0 1014.1 0 81
2019-08-28 02:00:00 21.5 4 Nordeste 7 Norte 0 1014.1 0.2 79
2019-08-28 01:00:00 22.3 5 Noroeste 8 Noroeste 0 1014.2 0.7 80
2019-08-28 00:00:00 23.2 3 Nordeste 14 Oeste 0 1014.1 1.1 74
2019-08-27 23:00:00 23.5 7 Sudoeste 18 Oeste 0 1013.9 1.1 73
2019-08-27 22:00:00 23.9 11 Sudoeste 20 Sudoeste 0 1013.5 0.7 73
2019-08-27 21:00:00 24.9 13 Sudoeste 22 Sudoeste 0 1013 0.1 60
2019-08-27 20:00:00 24.6 15 Sudoeste 27 Sudoeste 0 1012.8 -0.1 66
2019-08-27 19:00:00 25.9 17 Sudoeste 30 Sur 0 1012.8 -0.7 66
2019-08-27 18:00:00 27.2 18 Sudoeste 30 Sur 0 1012.9 -1.2 61
2019-08-27 17:00:00 27.8 20 Sur 28 Sudoeste 0 1012.9 -1.7 57
2019-08-27 16:00:00 27.8 19 Sur 26 Sudoeste 0 1013.5 -1.4 56
2019-08-27 15:00:00 27.5 17 Sur 30 Sudoeste 0 1014.1 -1.2 58
2019-08-27 14:00:00 27.1 18 Sudoeste 30 Sur 0 1014.6 -0.7 59
2019-08-27 13:00:00 27.9 8 Sur 15 Sudeste 0 1014.9 0.2 51
2019-08-27 12:00:00 25.8 7 Sudeste 15 Sudeste 0 1015.3 1.1 60
2019-08-27 11:00:00 24.1 9 Sudeste 17 Sudeste 0 1015.3 1.6 70
2019-08-27 10:00:00 22 8 Este 18 Este 0 1014.7 1.8 80
2019-08-27 09:00:00 19.6 12 Este 18 Este 0 1014.2 1.8 88
2019-08-27 08:00:00 18.5 5 Nordeste 12 Nordeste 0 1013.7 1.3 88
2019-08-27 07:00:00 18.1 9 Nordeste 13 Nordeste 0 1012.9 0.3 90
2019-08-27 06:00:00 17.9 8 Nordeste 12 Nordeste 0 1012.4 -0.6 90
2019-08-27 05:00:00 18 7 Nordeste 13 Nordeste 0 1012.4 -0.6 88
2019-08-27 04:00:00 18.6 8 Nordeste 12 Nordeste 0 1012.6 -0.3 87
2019-08-27 03:00:00 19.1 9 Nordeste 13 Nordeste 0 1013 0.4 88
2019-08-27 02:00:00 19.3 7 Nordeste 12 Nordeste 0 1013 0.9 84
2019-08-27 01:00:00 19.3 5 Nordeste 8 Sudeste 0 1012.9 1 88
2019-08-27 00:00:00 19.7 4 Sur 11 Sudeste 0 1012.6 1.5 85
2019-08-26 23:00:00 20.2 4 Sudeste 8 Sudeste 0 1012.1 1.5 82
2019-08-26 22:00:00 21.2 4 Sudeste 13 Sur 0 1011.9 1.4 80
2019-08-26 21:00:00 22.1 7 Sur 17 Sudoeste 0 1011.1 0.7 76
2019-08-26 20:00:00 23.1 14 Sudoeste 23 Sudoeste 0 1010.6 -0.5 73
2019-08-26 19:00:00 25.8 13 Sur 21 Sudoeste 0 1010.5 -0.6 57
2019-08-26 18:00:00 26.2 14 Sudoeste 23 Sudoeste 0 1010.4 -1.2 53
2019-08-26 17:00:00 27.9 17 Sur 28 Sur 0 1011.1 -0.7 53
2019-08-26 16:00:00 28.1 17 Sur 28 Sur 0 1011.1 -0.9 55
2019-08-26 15:00:00 27.1 17 Sur 29 Sur 0 1011.6 0.1 60
2019-08-26 14:00:00 27.3 21 Sur 33 Sudeste 0 1011.8 0.6 60
2019-08-26 13:00:00 26.7 23 Sur 34 Sur 0 1012 1.2 63
2019-08-26 12:00:00 25.8 18 Sudeste 33 Sur 0 1011.5 0.9 70
2019-08-26 11:00:00 25.3 21 Sudeste 30 Sudeste 0 1011.2 1.3 71
2019-08-26 10:00:00 23.7 6 Este 10 Este 0 1010.8 1.2 78
2019-08-26 09:00:00 22.7 3 Norte 10 Este 0 1010.6 1 73
2019-08-26 08:00:00 21.9 5 Nordeste 10 Este 0 1009.9 -0.1 72
2019-08-26 07:00:00 22 6 Nordeste 9 Nordeste 0 1009.6 -0.7 72
2019-08-26 06:00:00 22 6 Nordeste 11 Nordeste 0 1009.6 -1.1 73
2019-08-26 05:00:00 22.4 4 Nordeste 11 Nordeste 0 1010 -1.2 70
2019-08-26 04:00:00 22.8 8 Noroeste 13 Este 0 1010.3 -0.9 71
2019-08-26 03:00:00 22.2 6 Nordeste 8 Nordeste 0 1010.7 -0.3 72
2019-08-26 02:00:00 23.2 9 Oeste 16 Oeste 0 1011.2 0.2 69
2019-08-26 01:00:00 23.7 10 Oeste 23 Oeste 0 1011.2 0.7 67
2019-08-26 00:00:00 24.2 9 Oeste 20 Oeste 0 1011 0.8 63
2019-08-25 23:00:00 24.7 13 Oeste 21 Oeste 0 1011 1.2 61
2019-08-25 22:00:00 25.2 13 Oeste 22 Oeste 0 1010.5 0.7 59
2019-08-25 21:00:00 26.1 18 Oeste 30 Sudoeste 0 1010.2 -0.1 57
2019-08-25 20:00:00 27.7 19 Sudoeste 30 Oeste 0 1009.8 -0.6 54
2019-08-25 19:00:00 29 19 Sudoeste 30 Sudoeste 0 1009.8 -1.1 51
2019-08-25 18:00:00 30.1 18 Sudoeste 31 Sudoeste 0 1010.3 -1.4 45
2019-08-25 17:00:00 31.7 18 Sudoeste 30 Oeste 0 1010.4 -1.7 40
2019-08-25 16:00:00 32.6 15 Sudoeste 27 Oeste 0 1010.9 -1.6 36
2019-08-25 15:00:00 31.2 17 Sudoeste 27 Sudoeste 0 1011.7 -1.4 37
2019-08-25 14:00:00 31.1 14 Sur 23 Sur 0 1012.1 -1.1 36
2019-08-25 13:00:00 30.4 9 Sudoeste 17 Sur 0 1012.5 -0.8 35
2019-08-25 12:00:00 27.8 6 Noroeste 16 Noroeste 0 1013.1 -0.1 38
2019-08-25 11:00:00 26.9 11 Noroeste 19 Noroeste 0 1013.2 0.1 42
2019-08-25 10:00:00 24.3 8 Norte 15 Norte 0 1013.3 0.5 53
2019-08-25 09:00:00 21.9 9 Norte 16 Noroeste 0 1013.2 0.4 62
2019-08-25 08:00:00 19.7 5 Nordeste 10 Este 0 1013.1 0.1 72
2019-08-25 07:00:00 20.4 5 Norte 10 Nordeste 0 1012.8 -0.2 69
2019-08-25 06:00:00 21.5 5 Nordeste 7 Nordeste 0 1012.8 -0.4 66
2019-08-25 05:00:00 22.3 3 Nordeste 8 Oeste 0 1013 -0.3 64
2019-08-25 04:00:00 23.9 9 Oeste 18 Sudoeste 0 1013 -0.4 60
2019-08-25 03:00:00 24.6 12 Sudoeste 19 Sudoeste 0 1013.2 -0.2 57
2019-08-25 02:00:00 24.8 14 Sudoeste 22 Sudoeste 0 1013.3 0.1 52
2019-08-25 01:00:00 24.5 14 Sudoeste 26 Sudoeste 0 1013.4 0.8 57
2019-08-25 00:00:00 24.8 18 Sudoeste 25 Sudoeste 0 1013.4 1.1 61
2019-08-24 23:00:00 25.4 18 Sudoeste 31 Sudoeste 0 1013.2 1.1 58
2019-08-24 22:00:00 25.8 19 Sudoeste 28 Sudoeste 0 1012.6 0.4 59
2019-08-24 21:00:00 26.9 18 Sudoeste 32 Sudoeste 0 1012.3 -0.1 53
2019-08-24 20:00:00 28.7 20 Sudoeste 31 Sudoeste 0 1012.1 -0.7 47
2019-08-24 19:00:00 31.3 19 Sudoeste 30 Sudoeste 0 1012.2 -1 38
2019-08-24 18:00:00 33.4 18 Sudoeste 29 Sudoeste 0 1012.4 -1 31
2019-08-24 17:00:00 32.6 21 Sudoeste 32 Sudoeste 0 1012.8 -0.9 32
2019-08-24 16:00:00 32.3 23 Sudoeste 34 Sudoeste 0 1013.2 -1.1 35
2019-08-24 15:00:00 34.3 21 Sudoeste 29 Sur 0 1013.4 -1.3 30
2019-08-24 14:00:00 33.9 6 Sudoeste 17 Norte 0 1013.7 -0.7 29
2019-08-24 13:00:00 32.4 7 Nordeste 13 Nordeste 0 1014.3 -0.1 32
2019-08-24 12:00:00 30.5 7 Este 12 Este 0 1014.7 0.7 39
2019-08-24 11:00:00 28 4 Nordeste 10 Nordeste 0 1014.4 0.7 45
2019-08-24 10:00:00 24.6 5 Nordeste 9 Nordeste 0 1014.4 1 63
2019-08-24 09:00:00 21.4 3 Norte 6 Nordeste 0 1014 0.5 75
2019-08-24 08:00:00 20.1 6 Nordeste 8 Nordeste 0 1013.7 0 79
2019-08-24 07:00:00 20.5 4 Nordeste 10 Nordeste 0 1013.4 -0.3 77
2019-08-24 06:00:00 20.9 6 Nordeste 10 Nordeste 0 1013.5 -0.4 76
2019-08-24 05:00:00 22 7 Nordeste 12 Oeste 0 1013.7 -0.2 74
2019-08-24 04:00:00 23.4 9 Oeste 18 Oeste 0 1013.7 -0.2 70
2019-08-24 03:00:00 24.1 12 Sudoeste 22 Oeste 0 1013.9 0.3 69
2019-08-24 02:00:00 24.6 17 Oeste 28 Sudoeste 0 1013.9 0.8 68
2019-08-24 01:00:00 25 18 Sudoeste 28 Oeste 0 1013.9 1.7 67
2019-08-24 00:00:00 25.2 17 Oeste 25 Oeste 0 1013.6 2 65
2019-08-23 23:00:00 25.7 14 Oeste 24 Oeste 0 1013.1 1.8 62
2019-08-23 22:00:00 26.2 15 Oeste 26 Oeste 0 1012.2 0.6 60
2019-08-23 21:00:00 27.7 15 Sudoeste 22 Sudoeste 0 1011.6 -0.2 54
2019-08-23 20:00:00 29.9 13 Sudoeste 25 Sur 0 1011.3 -0.8 46
2019-08-23 19:00:00 31.5 18 Sur 30 Sudoeste 0 1011.6 -0.7 42
2019-08-23 18:00:00 32.8 22 Sur 33 Sur 0 1011.8 -1 39
2019-08-23 17:00:00 33.8 21 Sudoeste 32 Sudoeste 0 1012.1 -1 33
2019-08-23 16:00:00 34.8 18 Sudoeste 29 Sudoeste 0 1012.3 -1.3 28
2019-08-23 15:00:00 34.8 19 Sudoeste 29 Sudoeste 0 1012.8 -1.2 29
2019-08-23 14:00:00 34.7 11 Este 24 Este 0 1013.1 -1 27
2019-08-23 13:00:00 33.2 12 Nordeste 22 Este 0 1013.6 -0.4 29
2019-08-23 12:00:00 31.8 11 Este 22 Este 0 1014 0.3 33
2019-08-23 11:00:00 29.1 10 Este 22 Este 0 1014.1 0.7 43
2019-08-23 10:00:00 26.3 8 Nordeste 14 Este 0 1014 0.9 53
2019-08-23 09:00:00 23 9 Nordeste 13 Nordeste 0 1013.7 0.7 61
2019-08-23 08:00:00 21.3 5 Norte 11 Nordeste 0 1013.4 0.3 66
2019-08-23 07:00:00 21.1 6 Nordeste 11 Nordeste 0 1013.1 -0.1 69
2019-08-23 06:00:00 22.3 6 Nordeste 8 Nordeste 0 1013 -0.3 63
2019-08-23 05:00:00 23 4 Nordeste 10 Nordeste 0 1013.1 -0.3 62
2019-08-23 04:00:00 23 8 Nordeste 13 Norte 0 1013.2 -0.4 64
2019-08-23 03:00:00 23.5 5 Nordeste 14 Norte 0 1013.3 -0.3 61
2019-08-23 02:00:00 24.7 8 Noroeste 14 Noroeste 0 1013.4 0.1 58
2019-08-23 01:00:00 25.3 8 Noroeste 16 Oeste 0 1013.6 0.9 60
2019-08-23 00:00:00 25.1 13 Noroeste 18 Noroeste 0 1013.6 1.4 60